sensor_id;sensor_type;location;lat;lon;timestamp;temperature;humidity
17851;DHT22;9051;51.548;14.348;2023-04-09T00:01:51;1.80;99.90
17851;DHT22;9051;51.548;14.348;2023-04-09T00:04:23;1.80;99.90
17851;DHT22;9051;51.548;14.348;2023-04-09T00:06:56;1.80;99.90
17851;DHT22;9051;51.548;14.348;2023-04-09T00:09:28;1.80;99.90
17851;DHT22;9051;51.548;14.348;2023-04-09T00:12:00;1.70;99.90
17851;DHT22;9051;51.548;14.348;2023-04-09T00:14:33;1.70;99.90
17851;DHT22;9051;51.548;14.348;2023-04-09T00:17:05;1.70;99.90
17851;DHT22;9051;51.548;14.348;2023-04-09T00:19:37;1.70;99.90
17851;DHT22;9051;51.548;14.348;2023-04-09T00:22:10;1.70;99.90
17851;DHT22;9051;51.548;14.348;2023-04-09T00:24:42;1.70;99.90
17851;DHT22;9051;51.548;14.348;2023-04-09T00:27:14;1.60;99.90
17851;DHT22;9051;51.548;14.348;2023-04-09T00:29:46;1.60;99.90
17851;DHT22;9051;51.548;14.348;2023-04-09T00:32:18;1.60;99.90
17851;DHT22;9051;51.548;14.348;2023-04-09T00:34:50;1.60;99.90
17851;DHT22;9051;51.548;14.348;2023-04-09T00:37:24;1.60;99.90
17851;DHT22;9051;51.548;14.348;2023-04-09T00:39:56;1.60;99.90
17851;DHT22;9051;51.548;14.348;2023-04-09T00:42:30;1.60;99.90
17851;DHT22;9051;51.548;14.348;2023-04-09T00:45:03;1.50;99.90
17851;DHT22;9051;51.548;14.348;2023-04-09T00:47:36;1.50;99.90
17851;DHT22;9051;51.548;14.348;2023-04-09T00:50:08;1.50;99.90
17851;DHT22;9051;51.548;14.348;2023-04-09T00:52:42;1.50;99.90
17851;DHT22;9051;51.548;14.348;2023-04-09T00:55:14;1.50;99.90
17851;DHT22;9051;51.548;14.348;2023-04-09T00:57:46;1.50;99.90
17851;DHT22;9051;51.548;14.348;2023-04-09T01:00:18;1.50;99.90
17851;DHT22;9051;51.548;14.348;2023-04-09T01:02:50;1.50;99.90
17851;DHT22;9051;51.548;14.348;2023-04-09T01:05:24;1.40;99.90
17851;DHT22;9051;51.548;14.348;2023-04-09T01:08:10;1.40;99.90
17851;DHT22;9051;51.548;14.348;2023-04-09T01:10:47;1.40;99.90
17851;DHT22;9051;51.548;14.348;2023-04-09T01:13:29;1.40;99.90
17851;DHT22;9051;51.548;14.348;2023-04-09T01:16:07;1.40;99.90
17851;DHT22;9051;51.548;14.348;2023-04-09T01:18:44;1.40;99.90
17851;DHT22;9051;51.548;14.348;2023-04-09T01:21:25;1.30;99.90
17851;DHT22;9051;51.548;14.348;2023-04-09T01:24:11;1.20;99.90
17851;DHT22;9051;51.548;14.348;2023-04-09T01:26:56;1.30;99.90
17851;DHT22;9051;51.548;14.348;2023-04-09T01:29:45;1.30;99.90
17851;DHT22;9051;51.548;14.348;2023-04-09T01:32:18;1.30;99.90
17851;DHT22;9051;51.548;14.348;2023-04-09T01:34:52;1.40;99.90
17851;DHT22;9051;51.548;14.348;2023-04-09T01:37:26;1.40;99.90
17851;DHT22;9051;51.548;14.348;2023-04-09T01:39:58;1.40;99.90
17851;DHT22;9051;51.548;14.348;2023-04-09T01:42:32;1.40;99.90
17851;DHT22;9051;51.548;14.348;2023-04-09T01:45:06;1.40;99.90
17851;DHT22;9051;51.548;14.348;2023-04-09T01:47:39;1.40;99.90
17851;DHT22;9051;51.548;14.348;2023-04-09T01:50:11;1.30;99.90
17851;DHT22;9051;51.548;14.348;2023-04-09T01:52:43;1.30;99.90
17851;DHT22;9051;51.548;14.348;2023-04-09T01:55:16;1.20;99.90
17851;DHT22;9051;51.548;14.348;2023-04-09T01:57:48;1.10;99.90
17851;DHT22;9051;51.548;14.348;2023-04-09T02:00:22;1.10;99.90
17851;DHT22;9051;51.548;14.348;2023-04-09T02:03:02;1.00;99.90
17851;DHT22;9051;51.548;14.348;2023-04-09T02:05:39;1.10;99.90
17851;DHT22;9051;51.548;14.348;2023-04-09T02:08:18;1.00;99.90
17851;DHT22;9051;51.548;14.348;2023-04-09T02:10:55;1.10;99.90
17851;DHT22;9051;51.548;14.348;2023-04-09T02:13:30;1.10;99.90
17851;DHT22;9051;51.548;14.348;2023-04-09T02:16:06;1.10;99.90
17851;DHT22;9051;51.548;14.348;2023-04-09T02:18:39;1.10;99.90
17851;DHT22;9051;51.548;14.348;2023-04-09T02:21:11;1.00;99.90
17851;DHT22;9051;51.548;14.348;2023-04-09T02:23:43;1.00;99.90
17851;DHT22;9051;51.548;14.348;2023-04-09T02:26:15;1.00;99.90
17851;DHT22;9051;51.548;14.348;2023-04-09T02:28:47;1.00;99.90
17851;DHT22;9051;51.548;14.348;2023-04-09T02:31:21;0.90;99.90
17851;DHT22;9051;51.548;14.348;2023-04-09T02:33:54;0.90;99.90
17851;DHT22;9051;51.548;14.348;2023-04-09T02:36:26;0.90;99.90
17851;DHT22;9051;51.548;14.348;2023-04-09T02:38:59;0.90;99.90
17851;DHT22;9051;51.548;14.348;2023-04-09T02:41:31;0.90;99.90
17851;DHT22;9051;51.548;14.348;2023-04-09T02:44:03;0.80;99.90
17851;DHT22;9051;51.548;14.348;2023-04-09T02:46:37;0.80;99.90
17851;DHT22;9051;51.548;14.348;2023-04-09T02:49:09;0.80;99.90
17851;DHT22;9051;51.548;14.348;2023-04-09T02:51:41;0.80;99.90
17851;DHT22;9051;51.548;14.348;2023-04-09T02:54:14;0.80;99.90
17851;DHT22;9051;51.548;14.348;2023-04-09T02:56:46;0.80;99.90
17851;DHT22;9051;51.548;14.348;2023-04-09T02:59:17;0.80;99.90
17851;DHT22;9051;51.548;14.348;2023-04-09T03:01:51;0.90;99.90
17851;DHT22;9051;51.548;14.348;2023-04-09T03:04:23;0.90;99.90
17851;DHT22;9051;51.548;14.348;2023-04-09T03:06:55;0.90;99.90
17851;DHT22;9051;51.548;14.348;2023-04-09T03:09:27;0.80;99.90
17851;DHT22;9051;51.548;14.348;2023-04-09T03:11:59;0.70;99.90
17851;DHT22;9051;51.548;14.348;2023-04-09T03:14:33;0.70;99.90
17851;DHT22;9051;51.548;14.348;2023-04-09T03:17:06;0.70;99.90
17851;DHT22;9051;51.548;14.348;2023-04-09T03:19:38;0.60;99.90
17851;DHT22;9051;51.548;14.348;2023-04-09T03:22:10;0.60;99.90
17851;DHT22;9051;51.548;14.348;2023-04-09T03:24:42;0.50;99.90
17851;DHT22;9051;51.548;14.348;2023-04-09T03:27:14;0.40;99.90
17851;DHT22;9051;51.548;14.348;2023-04-09T03:29:47;0.40;99.90
17851;DHT22;9051;51.548;14.348;2023-04-09T03:32:21;0.40;99.90
17851;DHT22;9051;51.548;14.348;2023-04-09T03:34:53;0.30;99.90
17851;DHT22;9051;51.548;14.348;2023-04-09T03:37:26;0.30;99.90
17851;DHT22;9051;51.548;14.348;2023-04-09T03:39:58;0.30;99.90
17851;DHT22;9051;51.548;14.348;2023-04-09T03:42:33;0.20;99.90
17851;DHT22;9051;51.548;14.348;2023-04-09T03:45:08;0.20;99.90
17851;DHT22;9051;51.548;14.348;2023-04-09T03:47:46;0.20;99.90
17851;DHT22;9051;51.548;14.348;2023-04-09T03:50:18;0.20;99.90
17851;DHT22;9051;51.548;14.348;2023-04-09T03:52:54;0.20;99.90
17851;DHT22;9051;51.548;14.348;2023-04-09T03:55:26;0.20;99.90
17851;DHT22;9051;51.548;14.348;2023-04-09T03:57:59;0.10;99.90
17851;DHT22;9051;51.548;14.348;2023-04-09T04:00:35;0.20;99.90
17851;DHT22;9051;51.548;14.348;2023-04-09T04:03:28;0.20;99.90
17851;DHT22;9051;51.548;14.348;2023-04-09T04:06:14;0.30;99.90
17851;DHT22;9051;51.548;14.348;2023-04-09T04:09:05;0.30;99.90
17851;DHT22;9051;51.548;14.348;2023-04-09T04:11:45;0.30;99.90
17851;DHT22;9051;51.548;14.348;2023-04-09T04:14:18;0.20;99.90
17851;DHT22;9051;51.548;14.348;2023-04-09T04:16:56;0.10;99.90
17851;DHT22;9051;51.548;14.348;2023-04-09T04:19:36;0.10;99.90
17851;DHT22;9051;51.548;14.348;2023-04-09T04:22:08;0.10;99.90
17851;DHT22;9051;51.548;14.348;2023-04-09T04:24:44;0.10;99.90
17851;DHT22;9051;51.548;14.348;2023-04-09T04:27:20;0.20;99.90
17851;DHT22;9051;51.548;14.348;2023-04-09T04:29:52;0.20;99.90
17851;DHT22;9051;51.548;14.348;2023-04-09T04:32:41;0.20;99.90
17851;DHT22;9051;51.548;14.348;2023-04-09T04:35:17;0.10;99.90
17851;DHT22;9051;51.548;14.348;2023-04-09T04:37:50;0.20;99.90
17851;DHT22;9051;51.548;14.348;2023-04-09T04:40:24;0.20;99.90
17851;DHT22;9051;51.548;14.348;2023-04-09T04:43:02;0.30;99.90
17851;DHT22;9051;51.548;14.348;2023-04-09T04:45:34;0.30;99.90
17851;DHT22;9051;51.548;14.348;2023-04-09T04:48:14;0.30;99.90
17851;DHT22;9051;51.548;14.348;2023-04-09T04:50:53;0.30;99.90
17851;DHT22;9051;51.548;14.348;2023-04-09T04:53:26;0.20;99.90
17851;DHT22;9051;51.548;14.348;2023-04-09T04:56:01;0.20;99.90
17851;DHT22;9051;51.548;14.348;2023-04-09T04:58:33;0.30;99.90
17851;DHT22;9051;51.548;14.348;2023-04-09T05:01:06;0.20;99.90
17851;DHT22;9051;51.548;14.348;2023-04-09T05:03:38;0.20;99.90
17851;DHT22;9051;51.548;14.348;2023-04-09T05:06:30;0.30;99.90
17851;DHT22;9051;51.548;14.348;2023-04-09T05:09:05;0.30;99.90
17851;DHT22;9051;51.548;14.348;2023-04-09T05:11:45;0.40;99.90
17851;DHT22;9051;51.548;14.348;2023-04-09T05:14:22;0.50;99.90
17851;DHT22;9051;51.548;14.348;2023-04-09T05:16:55;0.50;99.90
17851;DHT22;9051;51.548;14.348;2023-04-09T05:19:31;0.50;99.90
17851;DHT22;9051;51.548;14.348;2023-04-09T05:22:07;0.60;99.90
17851;DHT22;9051;51.548;14.348;2023-04-09T05:24:39;0.60;99.90
17851;DHT22;9051;51.548;14.348;2023-04-09T05:27:12;0.70;99.90
17851;DHT22;9051;51.548;14.348;2023-04-09T05:29:45;0.70;99.90
17851;DHT22;9051;51.548;14.348;2023-04-09T05:32:17;0.80;99.90
17851;DHT22;9051;51.548;14.348;2023-04-09T05:34:49;0.90;99.90
17851;DHT22;9051;51.548;14.348;2023-04-09T05:37:22;1.00;99.90
17851;DHT22;9051;51.548;14.348;2023-04-09T05:39:56;1.00;99.90
17851;DHT22;9051;51.548;14.348;2023-04-09T05:42:29;1.10;99.90
17851;DHT22;9051;51.548;14.348;2023-04-09T05:45:12;1.20;99.90
17851;DHT22;9051;51.548;14.348;2023-04-09T05:47:51;1.20;99.90
17851;DHT22;9051;51.548;14.348;2023-04-09T05:50:26;1.30;99.90
17851;DHT22;9051;51.548;14.348;2023-04-09T05:53:00;1.40;99.90
17851;DHT22;9051;51.548;14.348;2023-04-09T05:55:41;1.50;99.90
17851;DHT22;9051;51.548;14.348;2023-04-09T05:58:13;1.50;99.90
17851;DHT22;9051;51.548;14.348;2023-04-09T06:00:46;1.50;99.90
17851;DHT22;9051;51.548;14.348;2023-04-09T06:03:18;1.50;99.90
17851;DHT22;9051;51.548;14.348;2023-04-09T06:05:50;1.60;99.90
17851;DHT22;9051;51.548;14.348;2023-04-09T06:08:23;1.70;99.90
17851;DHT22;9051;51.548;14.348;2023-04-09T06:10:55;1.70;99.90
17851;DHT22;9051;51.548;14.348;2023-04-09T06:13:27;1.80;99.90
17851;DHT22;9051;51.548;14.348;2023-04-09T06:15:59;1.90;99.90
17851;DHT22;9051;51.548;14.348;2023-04-09T06:18:31;1.90;99.90
17851;DHT22;9051;51.548;14.348;2023-04-09T06:21:03;2.00;99.90
17851;DHT22;9051;51.548;14.348;2023-04-09T06:23:37;2.10;99.90
17851;DHT22;9051;51.548;14.348;2023-04-09T06:26:10;2.20;99.90
17851;DHT22;9051;51.548;14.348;2023-04-09T06:28:42;2.40;99.90
17851;DHT22;9051;51.548;14.348;2023-04-09T06:31:14;2.70;99.90
17851;DHT22;9051;51.548;14.348;2023-04-09T06:33:46;3.00;99.90
17851;DHT22;9051;51.548;14.348;2023-04-09T06:36:19;3.10;99.90
17851;DHT22;9051;51.548;14.348;2023-04-09T06:38:52;3.20;99.90
17851;DHT22;9051;51.548;14.348;2023-04-09T06:41:25;3.20;99.90
17851;DHT22;9051;51.548;14.348;2023-04-09T06:43:57;3.20;99.90
17851;DHT22;9051;51.548;14.348;2023-04-09T06:46:30;3.20;99.90
17851;DHT22;9051;51.548;14.348;2023-04-09T06:49:02;3.20;99.90
17851;DHT22;9051;51.548;14.348;2023-04-09T06:51:34;3.20;99.90
17851;DHT22;9051;51.548;14.348;2023-04-09T06:54:08;3.20;99.90
17851;DHT22;9051;51.548;14.348;2023-04-09T06:56:42;3.20;99.90
17851;DHT22;9051;51.548;14.348;2023-04-09T06:59:15;3.20;99.90
17851;DHT22;9051;51.548;14.348;2023-04-09T07:01:47;3.10;99.90
17851;DHT22;9051;51.548;14.348;2023-04-09T07:04:19;3.20;99.90
17851;DHT22;9051;51.548;14.348;2023-04-09T07:06:51;3.20;99.90
17851;DHT22;9051;51.548;14.348;2023-04-09T07:09:25;3.30;99.90
17851;DHT22;9051;51.548;14.348;2023-04-09T07:11:57;3.30;99.90
17851;DHT22;9051;51.548;14.348;2023-04-09T07:14:29;3.40;99.90
17851;DHT22;9051;51.548;14.348;2023-04-09T07:17:01;3.50;99.90
17851;DHT22;9051;51.548;14.348;2023-04-09T07:19:33;3.70;99.90
17851;DHT22;9051;51.548;14.348;2023-04-09T07:22:05;3.90;99.90
17851;DHT22;9051;51.548;14.348;2023-04-09T07:24:38;4.00;99.90
17851;DHT22;9051;51.548;14.348;2023-04-09T07:27:11;4.20;99.90
17851;DHT22;9051;51.548;14.348;2023-04-09T07:29:43;4.30;99.90
17851;DHT22;9051;51.548;14.348;2023-04-09T07:32:16;4.40;99.90
17851;DHT22;9051;51.548;14.348;2023-04-09T07:34:51;4.40;99.90
17851;DHT22;9051;51.548;14.348;2023-04-09T07:37:23;4.50;99.90
17851;DHT22;9051;51.548;14.348;2023-04-09T07:39:56;4.60;99.90
17851;DHT22;9051;51.548;14.348;2023-04-09T07:42:28;4.70;99.90
17851;DHT22;9051;51.548;14.348;2023-04-09T07:45:00;4.90;99.90
17851;DHT22;9051;51.548;14.348;2023-04-09T07:47:33;5.00;99.90
17851;DHT22;9051;51.548;14.348;2023-04-09T07:50:06;5.10;99.90
17851;DHT22;9051;51.548;14.348;2023-04-09T07:52:38;5.20;99.90
17851;DHT22;9051;51.548;14.348;2023-04-09T07:55:11;5.30;99.90
17851;DHT22;9051;51.548;14.348;2023-04-09T07:57:43;5.50;99.90
17851;DHT22;9051;51.548;14.348;2023-04-09T08:00:16;5.60;99.90
17851;DHT22;9051;51.548;14.348;2023-04-09T08:02:48;5.70;99.90
17851;DHT22;9051;51.548;14.348;2023-04-09T08:05:21;5.80;99.90
17851;DHT22;9051;51.548;14.348;2023-04-09T08:07:53;5.90;99.90
17851;DHT22;9051;51.548;14.348;2023-04-09T08:10:28;6.00;99.90
17851;DHT22;9051;51.548;14.348;2023-04-09T08:13:00;6.20;99.90
17851;DHT22;9051;51.548;14.348;2023-04-09T08:15:32;6.30;99.90
17851;DHT22;9051;51.548;14.348;2023-04-09T08:18:04;6.40;99.90
17851;DHT22;9051;51.548;14.348;2023-04-09T08:20:36;6.50;99.90
17851;DHT22;9051;51.548;14.348;2023-04-09T08:23:14;6.50;99.90
17851;DHT22;9051;51.548;14.348;2023-04-09T08:25:47;6.60;99.90
17851;DHT22;9051;51.548;14.348;2023-04-09T08:28:19;6.70;99.90
17851;DHT22;9051;51.548;14.348;2023-04-09T08:30:51;6.80;99.90
17851;DHT22;9051;51.548;14.348;2023-04-09T08:33:23;6.90;99.90
17851;DHT22;9051;51.548;14.348;2023-04-09T08:35:56;7.10;99.90
17851;DHT22;9051;51.548;14.348;2023-04-09T08:38:27;7.10;99.90
17851;DHT22;9051;51.548;14.348;2023-04-09T08:41:01;7.20;99.90
17851;DHT22;9051;51.548;14.348;2023-04-09T08:43:33;7.30;99.90
17851;DHT22;9051;51.548;14.348;2023-04-09T08:46:06;7.40;99.90
17851;DHT22;9051;51.548;14.348;2023-04-09T08:48:43;7.40;99.90
17851;DHT22;9051;51.548;14.348;2023-04-09T08:51:18;7.50;99.90
17851;DHT22;9051;51.548;14.348;2023-04-09T08:53:55;7.70;99.90
17851;DHT22;9051;51.548;14.348;2023-04-09T08:56:29;7.70;99.90
17851;DHT22;9051;51.548;14.348;2023-04-09T08:59:01;7.70;99.90
17851;DHT22;9051;51.548;14.348;2023-04-09T09:01:33;7.80;99.90
17851;DHT22;9051;51.548;14.348;2023-04-09T09:04:07;7.80;99.90
17851;DHT22;9051;51.548;14.348;2023-04-09T09:06:39;7.90;99.90
17851;DHT22;9051;51.548;14.348;2023-04-09T09:09:13;8.00;99.90
17851;DHT22;9051;51.548;14.348;2023-04-09T09:11:47;8.10;99.90
17851;DHT22;9051;51.548;14.348;2023-04-09T09:14:21;8.20;99.90
17851;DHT22;9051;51.548;14.348;2023-04-09T09:17:03;8.40;99.90
17851;DHT22;9051;51.548;14.348;2023-04-09T09:19:36;8.60;99.90
17851;DHT22;9051;51.548;14.348;2023-04-09T09:22:08;8.60;99.90
17851;DHT22;9051;51.548;14.348;2023-04-09T09:24:46;8.70;99.90
17851;DHT22;9051;51.548;14.348;2023-04-09T09:27:33;8.70;99.90
17851;DHT22;9051;51.548;14.348;2023-04-09T09:30:07;8.70;99.90
17851;DHT22;9051;51.548;14.348;2023-04-09T09:32:40;8.70;99.90
17851;DHT22;9051;51.548;14.348;2023-04-09T09:35:12;8.70;99.90
17851;DHT22;9051;51.548;14.348;2023-04-09T09:37:45;8.80;99.90
17851;DHT22;9051;51.548;14.348;2023-04-09T09:40:26;8.90;99.90
17851;DHT22;9051;51.548;14.348;2023-04-09T09:42:59;8.90;99.90
17851;DHT22;9051;51.548;14.348;2023-04-09T09:45:32;8.90;99.90
17851;DHT22;9051;51.548;14.348;2023-04-09T09:48:04;8.90;99.90
17851;DHT22;9051;51.548;14.348;2023-04-09T09:50:37;9.10;99.90
17851;DHT22;9051;51.548;14.348;2023-04-09T09:53:11;9.10;99.90
17851;DHT22;9051;51.548;14.348;2023-04-09T09:55:48;9.20;99.90
17851;DHT22;9051;51.548;14.348;2023-04-09T09:58:27;9.20;99.90
17851;DHT22;9051;51.548;14.348;2023-04-09T10:01:06;9.30;99.90
17851;DHT22;9051;51.548;14.348;2023-04-09T10:03:39;9.30;99.90
17851;DHT22;9051;51.548;14.348;2023-04-09T10:06:12;9.30;99.90
17851;DHT22;9051;51.548;14.348;2023-04-09T10:08:48;9.40;99.90
17851;DHT22;9051;51.548;14.348;2023-04-09T10:11:20;9.40;99.90
17851;DHT22;9051;51.548;14.348;2023-04-09T10:13:56;9.60;99.90
17851;DHT22;9051;51.548;14.348;2023-04-09T10:16:28;9.70;99.90
17851;DHT22;9051;51.548;14.348;2023-04-09T10:19:01;9.70;99.90
17851;DHT22;9051;51.548;14.348;2023-04-09T10:21:39;9.80;99.90
17851;DHT22;9051;51.548;14.348;2023-04-09T10:24:13;9.90;99.90
17851;DHT22;9051;51.548;14.348;2023-04-09T10:26:46;9.90;99.90
17851;DHT22;9051;51.548;14.348;2023-04-09T10:29:26;9.90;99.90
17851;DHT22;9051;51.548;14.348;2023-04-09T10:32:03;9.90;99.90
17851;DHT22;9051;51.548;14.348;2023-04-09T10:34:37;10.00;99.90
17851;DHT22;9051;51.548;14.348;2023-04-09T10:37:13;10.20;99.90
17851;DHT22;9051;51.548;14.348;2023-04-09T10:39:47;10.30;99.90
17851;DHT22;9051;51.548;14.348;2023-04-09T10:42:22;10.40;99.90
17851;DHT22;9051;51.548;14.348;2023-04-09T10:45:07;10.60;99.90
17851;DHT22;9051;51.548;14.348;2023-04-09T10:47:40;10.60;99.90
17851;DHT22;9051;51.548;14.348;2023-04-09T10:50:17;10.80;99.90
17851;DHT22;9051;51.548;14.348;2023-04-09T10:52:52;10.80;99.90
17851;DHT22;9051;51.548;14.348;2023-04-09T10:55:29;10.90;99.90
17851;DHT22;9051;51.548;14.348;2023-04-09T10:58:05;10.90;99.90
17851;DHT22;9051;51.548;14.348;2023-04-09T11:00:50;11.10;99.90
17851;DHT22;9051;51.548;14.348;2023-04-09T11:03:24;11.20;99.90
17851;DHT22;9051;51.548;14.348;2023-04-09T11:06:01;11.30;99.90
17851;DHT22;9051;51.548;14.348;2023-04-09T11:08:36;11.40;99.90
17851;DHT22;9051;51.548;14.348;2023-04-09T11:11:09;11.60;99.90
17851;DHT22;9051;51.548;14.348;2023-04-09T11:13:41;11.60;99.90
17851;DHT22;9051;51.548;14.348;2023-04-09T11:16:15;11.50;99.90
17851;DHT22;9051;51.548;14.348;2023-04-09T11:18:47;11.60;99.90
17851;DHT22;9051;51.548;14.348;2023-04-09T11:21:19;11.70;99.90
17851;DHT22;9051;51.548;14.348;2023-04-09T11:23:51;11.70;99.90
17851;DHT22;9051;51.548;14.348;2023-04-09T11:26:24;11.60;99.90
17851;DHT22;9051;51.548;14.348;2023-04-09T11:29:04;11.60;99.90
17851;DHT22;9051;51.548;14.348;2023-04-09T11:31:37;11.80;99.90
17851;DHT22;9051;51.548;14.348;2023-04-09T11:34:09;11.70;99.90
17851;DHT22;9051;51.548;14.348;2023-04-09T11:36:41;11.70;99.90
17851;DHT22;9051;51.548;14.348;2023-04-09T11:39:13;11.60;99.90
17851;DHT22;9051;51.548;14.348;2023-04-09T11:41:45;11.60;99.90
17851;DHT22;9051;51.548;14.348;2023-04-09T11:44:19;11.60;99.90
17851;DHT22;9051;51.548;14.348;2023-04-09T11:46:53;11.80;99.90
17851;DHT22;9051;51.548;14.348;2023-04-09T11:49:26;12.00;99.90
17851;DHT22;9051;51.548;14.348;2023-04-09T11:51:58;12.20;99.90
17851;DHT22;9051;51.548;14.348;2023-04-09T11:54:31;12.30;99.90
17851;DHT22;9051;51.548;14.348;2023-04-09T11:57:03;12.40;99.90
17851;DHT22;9051;51.548;14.348;2023-04-09T11:59:37;12.50;99.90
17851;DHT22;9051;51.548;14.348;2023-04-09T12:02:16;12.60;99.90
17851;DHT22;9051;51.548;14.348;2023-04-09T12:04:49;12.80;99.90
17851;DHT22;9051;51.548;14.348;2023-04-09T12:07:21;13.00;99.90
17851;DHT22;9051;51.548;14.348;2023-04-09T12:09:53;13.00;99.90
17851;DHT22;9051;51.548;14.348;2023-04-09T12:12:27;13.00;99.90
17851;DHT22;9051;51.548;14.348;2023-04-09T12:15:08;12.90;99.90
17851;DHT22;9051;51.548;14.348;2023-04-09T12:17:42;12.80;99.90
17851;DHT22;9051;51.548;14.348;2023-04-09T12:20:28;12.90;99.90
17851;DHT22;9051;51.548;14.348;2023-04-09T12:23:38;12.90;99.90
17851;DHT22;9051;51.548;14.348;2023-04-09T12:26:10;12.80;99.90
17851;DHT22;9051;51.548;14.348;2023-04-09T12:28:42;12.80;99.90
17851;DHT22;9051;51.548;14.348;2023-04-09T12:31:14;12.80;99.90
17851;DHT22;9051;51.548;14.348;2023-04-09T12:33:47;12.80;99.90
17851;DHT22;9051;51.548;14.348;2023-04-09T12:36:19;12.70;99.90
17851;DHT22;9051;51.548;14.348;2023-04-09T12:38:53;12.70;99.90
17851;DHT22;9051;51.548;14.348;2023-04-09T12:41:25;12.60;99.90
17851;DHT22;9051;51.548;14.348;2023-04-09T12:43:57;12.70;99.90
17851;DHT22;9051;51.548;14.348;2023-04-09T12:46:29;12.80;99.90
17851;DHT22;9051;51.548;14.348;2023-04-09T12:49:03;12.70;99.90
17851;DHT22;9051;51.548;14.348;2023-04-09T12:51:35;12.70;99.90
17851;DHT22;9051;51.548;14.348;2023-04-09T12:54:07;12.70;99.90
17851;DHT22;9051;51.548;14.348;2023-04-09T12:56:39;12.60;99.90
17851;DHT22;9051;51.548;14.348;2023-04-09T12:59:11;12.60;99.90
17851;DHT22;9051;51.548;14.348;2023-04-09T13:01:43;12.80;99.90
17851;DHT22;9051;51.548;14.348;2023-04-09T13:04:17;13.20;99.90
17851;DHT22;9051;51.548;14.348;2023-04-09T13:06:49;13.60;99.90
17851;DHT22;9051;51.548;14.348;2023-04-09T13:09:21;13.90;99.90
17851;DHT22;9051;51.548;14.348;2023-04-09T13:11:53;13.90;99.90
17851;DHT22;9051;51.548;14.348;2023-04-09T13:14:25;13.90;99.90
17851;DHT22;9051;51.548;14.348;2023-04-09T13:16:57;13.90;99.90
17851;DHT22;9051;51.548;14.348;2023-04-09T13:19:31;13.70;99.90
17851;DHT22;9051;51.548;14.348;2023-04-09T13:22:03;13.60;99.90
17851;DHT22;9051;51.548;14.348;2023-04-09T13:24:37;13.40;99.90
17851;DHT22;9051;51.548;14.348;2023-04-09T13:27:09;13.30;99.90
17851;DHT22;9051;51.548;14.348;2023-04-09T13:29:41;13.10;99.90
17851;DHT22;9051;51.548;14.348;2023-04-09T13:32:13;13.10;99.90
17851;DHT22;9051;51.548;14.348;2023-04-09T13:34:47;13.10;99.90
17851;DHT22;9051;51.548;14.348;2023-04-09T13:37:20;13.00;99.90
17851;DHT22;9051;51.548;14.348;2023-04-09T13:39:52;13.00;99.90
17851;DHT22;9051;51.548;14.348;2023-04-09T13:42:24;13.10;99.90
17851;DHT22;9051;51.548;14.348;2023-04-09T13:44:56;13.10;99.90
17851;DHT22;9051;51.548;14.348;2023-04-09T13:47:28;13.20;99.90
17851;DHT22;9051;51.548;14.348;2023-04-09T13:50:02;13.20;99.90
17851;DHT22;9051;51.548;14.348;2023-04-09T13:52:34;13.30;99.90
17851;DHT22;9051;51.548;14.348;2023-04-09T13:55:07;13.40;99.90
17851;DHT22;9051;51.548;14.348;2023-04-09T13:57:40;13.30;99.90
17851;DHT22;9051;51.548;14.348;2023-04-09T14:00:12;13.30;99.90
17851;DHT22;9051;51.548;14.348;2023-04-09T14:02:45;13.30;99.90
17851;DHT22;9051;51.548;14.348;2023-04-09T14:05:18;13.30;99.90
17851;DHT22;9051;51.548;14.348;2023-04-09T14:07:50;13.30;99.90
17851;DHT22;9051;51.548;14.348;2023-04-09T14:10:23;13.40;99.90
17851;DHT22;9051;51.548;14.348;2023-04-09T14:12:55;13.30;99.90
17851;DHT22;9051;51.548;14.348;2023-04-09T14:15:28;13.30;99.90
17851;DHT22;9051;51.548;14.348;2023-04-09T14:18:00;13.20;99.90
17851;DHT22;9051;51.548;14.348;2023-04-09T14:20:33;13.20;99.90
17851;DHT22;9051;51.548;14.348;2023-04-09T14:23:06;13.20;99.90
17851;DHT22;9051;51.548;14.348;2023-04-09T14:25:38;13.30;99.90
17851;DHT22;9051;51.548;14.348;2023-04-09T14:28:10;13.30;99.90
17851;DHT22;9051;51.548;14.348;2023-04-09T14:30:42;13.40;99.90
17851;DHT22;9051;51.548;14.348;2023-04-09T14:33:14;13.50;99.90
17851;DHT22;9051;51.548;14.348;2023-04-09T14:35:48;13.50;99.90
17851;DHT22;9051;51.548;14.348;2023-04-09T14:38:20;13.40;99.90
17851;DHT22;9051;51.548;14.348;2023-04-09T14:40:53;13.30;99.90
17851;DHT22;9051;51.548;14.348;2023-04-09T14:43:25;13.20;99.90
17851;DHT22;9051;51.548;14.348;2023-04-09T14:45:57;13.20;99.90
17851;DHT22;9051;51.548;14.348;2023-04-09T14:48:29;13.20;99.90
17851;DHT22;9051;51.548;14.348;2023-04-09T14:51:03;13.10;99.90
17851;DHT22;9051;51.548;14.348;2023-04-09T14:53:35;13.10;99.90
17851;DHT22;9051;51.548;14.348;2023-04-09T14:56:07;13.00;99.90
17851;DHT22;9051;51.548;14.348;2023-04-09T14:58:39;12.90;99.90
17851;DHT22;9051;51.548;14.348;2023-04-09T15:01:11;12.90;99.90
17851;DHT22;9051;51.548;14.348;2023-04-09T15:03:43;12.80;99.90
17851;DHT22;9051;51.548;14.348;2023-04-09T15:06:18;12.70;99.90
17851;DHT22;9051;51.548;14.348;2023-04-09T15:08:50;12.80;99.90
17851;DHT22;9051;51.548;14.348;2023-04-09T15:11:22;12.70;99.90
17851;DHT22;9051;51.548;14.348;2023-04-09T15:13:54;12.70;99.90
17851;DHT22;9051;51.548;14.348;2023-04-09T15:16:27;12.70;99.90
17851;DHT22;9051;51.548;14.348;2023-04-09T15:19:02;12.70;99.90
17851;DHT22;9051;51.548;14.348;2023-04-09T15:21:36;12.70;99.90
17851;DHT22;9051;51.548;14.348;2023-04-09T15:24:08;12.70;99.90
17851;DHT22;9051;51.548;14.348;2023-04-09T15:26:40;12.70;99.90
17851;DHT22;9051;51.548;14.348;2023-04-09T15:29:12;12.70;99.90
17851;DHT22;9051;51.548;14.348;2023-04-09T15:31:45;12.70;99.90
17851;DHT22;9051;51.548;14.348;2023-04-09T15:34:18;12.70;99.90
17851;DHT22;9051;51.548;14.348;2023-04-09T15:36:51;12.80;99.90
17851;DHT22;9051;51.548;14.348;2023-04-09T15:39:32;12.80;99.90
17851;DHT22;9051;51.548;14.348;2023-04-09T15:42:05;12.80;99.90
17851;DHT22;9051;51.548;14.348;2023-04-09T15:44:37;12.80;99.90
17851;DHT22;9051;51.548;14.348;2023-04-09T15:47:09;12.90;99.90
17851;DHT22;9051;51.548;14.348;2023-04-09T15:49:41;12.80;99.90
17851;DHT22;9051;51.548;14.348;2023-04-09T15:52:15;12.90;99.90
17851;DHT22;9051;51.548;14.348;2023-04-09T15:54:47;12.90;99.90
17851;DHT22;9051;51.548;14.348;2023-04-09T15:57:18;12.90;99.90
17851;DHT22;9051;51.548;14.348;2023-04-09T15:59:51;12.90;99.90
17851;DHT22;9051;51.548;14.348;2023-04-09T16:02:23;12.90;99.90
17851;DHT22;9051;51.548;14.348;2023-04-09T16:04:55;12.90;99.90
17851;DHT22;9051;51.548;14.348;2023-04-09T16:07:29;12.90;99.90
17851;DHT22;9051;51.548;14.348;2023-04-09T16:10:01;12.90;99.90
17851;DHT22;9051;51.548;14.348;2023-04-09T16:12:34;12.90;99.90
17851;DHT22;9051;51.548;14.348;2023-04-09T16:15:08;12.80;99.90
17851;DHT22;9051;51.548;14.348;2023-04-09T16:17:40;12.80;99.90
17851;DHT22;9051;51.548;14.348;2023-04-09T16:20:13;12.70;99.90
17851;DHT22;9051;51.548;14.348;2023-04-09T16:22:48;12.70;99.90